sensor_id;sensor_type;location;lat;lon;timestamp;temperature;humidity
52459;DHT22;38372;52.902;6.024;2022-12-01T00:02:20;5.90;99.90
52459;DHT22;38372;52.902;6.024;2022-12-01T00:04:47;5.90;99.90
52459;DHT22;38372;52.902;6.024;2022-12-01T00:07:13;5.90;99.90
52459;DHT22;38372;52.902;6.024;2022-12-01T00:09:39;5.90;99.90
52459;DHT22;38372;52.902;6.024;2022-12-01T00:12:23;5.90;99.90
52459;DHT22;38372;52.902;6.024;2022-12-01T00:14:49;5.80;99.90
52459;DHT22;38372;52.902;6.024;2022-12-01T00:17:20;5.80;99.90
52459;DHT22;38372;52.902;6.024;2022-12-01T00:19:46;5.80;99.90
52459;DHT22;38372;52.902;6.024;2022-12-01T00:22:12;5.80;99.90
52459;DHT22;38372;52.902;6.024;2022-12-01T00:24:37;5.70;99.90
52459;DHT22;38372;52.902;6.024;2022-12-01T00:27:04;5.70;99.90
52459;DHT22;38372;52.902;6.024;2022-12-01T00:29:29;5.70;99.90
52459;DHT22;38372;52.902;6.024;2022-12-01T00:31:55;5.70;99.90
52459;DHT22;38372;52.902;6.024;2022-12-01T00:34:23;5.70;99.90
52459;DHT22;38372;52.902;6.024;2022-12-01T00:36:49;5.70;99.90
52459;DHT22;38372;52.902;6.024;2022-12-01T00:39:15;5.60;99.90
52459;DHT22;38372;52.902;6.024;2022-12-01T00:41:41;5.60;99.90
52459;DHT22;38372;52.902;6.024;2022-12-01T00:44:07;5.60;99.90
52459;DHT22;38372;52.902;6.024;2022-12-01T00:46:32;5.60;99.90
52459;DHT22;38372;52.902;6.024;2022-12-01T00:48:58;5.60;99.90
52459;DHT22;38372;52.902;6.024;2022-12-01T00:51:24;5.60;99.90
52459;DHT22;38372;52.902;6.024;2022-12-01T00:53:50;5.60;99.90
52459;DHT22;38372;52.902;6.024;2022-12-01T00:56:15;5.60;99.90
52459;DHT22;38372;52.902;6.024;2022-12-01T00:58:41;5.60;99.90
52459;DHT22;38372;52.902;6.024;2022-12-01T01:01:07;5.60;99.90
52459;DHT22;38372;52.902;6.024;2022-12-01T01:03:33;5.60;99.90
52459;DHT22;38372;52.902;6.024;2022-12-01T01:06:10;5.50;99.90
52459;DHT22;38372;52.902;6.024;2022-12-01T01:08:36;5.50;99.90
52459;DHT22;38372;52.902;6.024;2022-12-01T01:11:02;5.50;99.90
52459;DHT22;38372;52.902;6.024;2022-12-01T01:13:29;5.50;99.90
52459;DHT22;38372;52.902;6.024;2022-12-01T01:16:03;5.50;99.90
52459;DHT22;38372;52.902;6.024;2022-12-01T01:18:29;5.50;99.90
52459;DHT22;38372;52.902;6.024;2022-12-01T01:21:04;5.50;99.90
52459;DHT22;38372;52.902;6.024;2022-12-01T01:23:30;5.40;99.90
52459;DHT22;38372;52.902;6.024;2022-12-01T01:26:05;5.40;99.90
52459;DHT22;38372;52.902;6.024;2022-12-01T01:28:32;5.40;99.90
52459;DHT22;38372;52.902;6.024;2022-12-01T01:30:58;5.40;99.90
52459;DHT22;38372;52.902;6.024;2022-12-01T01:33:24;5.40;99.90
52459;DHT22;38372;52.902;6.024;2022-12-01T01:35:50;5.40;99.90
52459;DHT22;38372;52.902;6.024;2022-12-01T01:38:16;5.40;99.90
52459;DHT22;38372;52.902;6.024;2022-12-01T01:40:45;5.40;99.90
52459;DHT22;38372;52.902;6.024;2022-12-01T01:43:16;5.40;99.90
52459;DHT22;38372;52.902;6.024;2022-12-01T01:45:43;5.40;99.90
52459;DHT22;38372;52.902;6.024;2022-12-01T01:48:10;5.40;99.90
52459;DHT22;38372;52.902;6.024;2022-12-01T01:50:38;5.40;99.90
52459;DHT22;38372;52.902;6.024;2022-12-01T01:53:08;5.40;99.90
52459;DHT22;38372;52.902;6.024;2022-12-01T01:55:35;5.40;99.90
52459;DHT22;38372;52.902;6.024;2022-12-01T01:58:03;5.40;99.90
52459;DHT22;38372;52.902;6.024;2022-12-01T02:00:31;5.40;99.90
52459;DHT22;38372;52.902;6.024;2022-12-01T02:02:57;5.40;99.90
52459;DHT22;38372;52.902;6.024;2022-12-01T02:05:27;5.40;99.90
52459;DHT22;38372;52.902;6.024;2022-12-01T02:07:55;5.40;99.90
52459;DHT22;38372;52.902;6.024;2022-12-01T02:10:28;5.40;99.90
52459;DHT22;38372;52.902;6.024;2022-12-01T02:16:11;5.40;99.90
52459;DHT22;38372;52.902;6.024;2022-12-01T02:18:52;5.40;99.90
52459;DHT22;38372;52.902;6.024;2022-12-01T02:31:29;5.40;99.90
52459;DHT22;38372;52.902;6.024;2022-12-01T02:34:12;5.40;99.90
52459;DHT22;38372;52.902;6.024;2022-12-01T02:36:57;5.40;99.90
52459;DHT22;38372;52.902;6.024;2022-12-01T02:39:41;5.40;99.90
52459;DHT22;38372;52.902;6.024;2022-12-01T02:42:48;5.40;99.90
52459;DHT22;38372;52.902;6.024;2022-12-01T02:45:33;5.40;99.90
52459;DHT22;38372;52.902;6.024;2022-12-01T02:48:05;5.40;99.90
52459;DHT22;38372;52.902;6.024;2022-12-01T02:50:34;5.30;99.90
52459;DHT22;38372;52.902;6.024;2022-12-01T02:53:03;5.30;99.90
52459;DHT22;38372;52.902;6.024;2022-12-01T02:55:30;5.20;99.90
52459;DHT22;38372;52.902;6.024;2022-12-01T02:57:56;5.20;99.90
52459;DHT22;38372;52.902;6.024;2022-12-01T03:00:22;5.20;99.90
52459;DHT22;38372;52.902;6.024;2022-12-01T03:05:39;5.20;99.90
52459;DHT22;38372;52.902;6.024;2022-12-01T03:08:26;5.20;99.90
52459;DHT22;38372;52.902;6.024;2022-12-01T03:10:55;5.20;99.90
52459;DHT22;38372;52.902;6.024;2022-12-01T03:16:06;5.30;99.90
52459;DHT22;38372;52.902;6.024;2022-12-01T03:18:52;5.20;99.90
52459;DHT22;38372;52.902;6.024;2022-12-01T03:21:39;5.20;99.90
52459;DHT22;38372;52.902;6.024;2022-12-01T03:24:10;5.30;99.90
52459;DHT22;38372;52.902;6.024;2022-12-01T03:26:40;5.30;99.90
52459;DHT22;38372;52.902;6.024;2022-12-01T03:29:19;5.30;99.90
52459;DHT22;38372;52.902;6.024;2022-12-01T03:31:56;5.30;99.90
52459;DHT22;38372;52.902;6.024;2022-12-01T03:34:42;5.30;99.90
52459;DHT22;38372;52.902;6.024;2022-12-01T03:37:15;5.30;99.90
52459;DHT22;38372;52.902;6.024;2022-12-01T03:39:47;5.30;99.90
52459;DHT22;38372;52.902;6.024;2022-12-01T03:42:23;5.30;99.90
52459;DHT22;38372;52.902;6.024;2022-12-01T03:44:54;5.20;99.90
52459;DHT22;38372;52.902;6.024;2022-12-01T03:47:25;5.20;99.90
52459;DHT22;38372;52.902;6.024;2022-12-01T03:49:54;5.20;99.90
52459;DHT22;38372;52.902;6.024;2022-12-01T04:00:28;5.20;99.90
52459;DHT22;38372;52.902;6.024;2022-12-01T04:02:57;5.20;99.90
52459;DHT22;38372;52.902;6.024;2022-12-01T04:05:23;5.20;99.90
52459;DHT22;38372;52.902;6.024;2022-12-01T04:07:50;5.10;99.90
52459;DHT22;38372;52.902;6.024;2022-12-01T04:10:16;5.10;99.90
52459;DHT22;38372;52.902;6.024;2022-12-01T04:12:41;5.10;99.90
52459;DHT22;38372;52.902;6.024;2022-12-01T04:15:09;5.00;99.90
52459;DHT22;38372;52.902;6.024;2022-12-01T04:17:37;5.00;99.90
52459;DHT22;38372;52.902;6.024;2022-12-01T04:20:05;4.90;99.90
52459;DHT22;38372;52.902;6.024;2022-12-01T04:22:31;4.90;99.90
52459;DHT22;38372;52.902;6.024;2022-12-01T04:24:58;4.90;99.90
52459;DHT22;38372;52.902;6.024;2022-12-01T04:27:23;4.90;99.90
52459;DHT22;38372;52.902;6.024;2022-12-01T04:29:49;4.80;99.90
52459;DHT22;38372;52.902;6.024;2022-12-01T04:32:15;4.80;99.90
52459;DHT22;38372;52.902;6.024;2022-12-01T04:34:41;4.80;99.90
52459;DHT22;38372;52.902;6.024;2022-12-01T04:37:07;4.70;99.90
52459;DHT22;38372;52.902;6.024;2022-12-01T04:39:35;4.70;99.90
52459;DHT22;38372;52.902;6.024;2022-12-01T04:42:00;4.70;99.90
52459;DHT22;38372;52.902;6.024;2022-12-01T04:44:26;4.70;99.90
52459;DHT22;38372;52.902;6.024;2022-12-01T04:46:52;4.60;99.90
52459;DHT22;38372;52.902;6.024;2022-12-01T04:49:19;4.50;99.90
52459;DHT22;38372;52.902;6.024;2022-12-01T04:51:46;4.50;99.90
52459;DHT22;38372;52.902;6.024;2022-12-01T04:54:12;4.50;99.90
52459;DHT22;38372;52.902;6.024;2022-12-01T04:56:38;4.40;99.90
52459;DHT22;38372;52.902;6.024;2022-12-01T04:59:04;4.30;99.90
52459;DHT22;38372;52.902;6.024;2022-12-01T05:01:30;4.30;99.90
52459;DHT22;38372;52.902;6.024;2022-12-01T05:03:55;4.30;99.90
52459;DHT22;38372;52.902;6.024;2022-12-01T05:06:26;4.30;99.90
52459;DHT22;38372;52.902;6.024;2022-12-01T05:08:58;4.30;99.90
52459;DHT22;38372;52.902;6.024;2022-12-01T05:11:25;4.30;99.90
52459;DHT22;38372;52.902;6.024;2022-12-01T05:13:51;4.30;99.90
52459;DHT22;38372;52.902;6.024;2022-12-01T05:16:19;4.30;99.90
52459;DHT22;38372;52.902;6.024;2022-12-01T05:18:54;4.30;99.90
52459;DHT22;38372;52.902;6.024;2022-12-01T05:21:40;4.40;99.90
52459;DHT22;38372;52.902;6.024;2022-12-01T05:24:07;4.40;99.90
52459;DHT22;38372;52.902;6.024;2022-12-01T05:26:33;4.40;99.90
52459;DHT22;38372;52.902;6.024;2022-12-01T05:28:59;4.40;99.90
52459;DHT22;38372;52.902;6.024;2022-12-01T05:31:25;4.50;99.90
52459;DHT22;38372;52.902;6.024;2022-12-01T05:33:50;4.40;99.90
52459;DHT22;38372;52.902;6.024;2022-12-01T05:36:16;4.50;99.90
52459;DHT22;38372;52.902;6.024;2022-12-01T05:38:42;4.60;99.90
52459;DHT22;38372;52.902;6.024;2022-12-01T05:41:08;4.60;99.90
52459;DHT22;38372;52.902;6.024;2022-12-01T05:43:34;4.60;99.90
52459;DHT22;38372;52.902;6.024;2022-12-01T05:46:00;4.60;99.90
52459;DHT22;38372;52.902;6.024;2022-12-01T05:48:26;4.70;99.90
52459;DHT22;38372;52.902;6.024;2022-12-01T05:50:52;4.70;99.90
52459;DHT22;38372;52.902;6.024;2022-12-01T05:53:18;4.70;99.90
52459;DHT22;38372;52.902;6.024;2022-12-01T05:55:44;4.80;99.90
52459;DHT22;38372;52.902;6.024;2022-12-01T05:58:10;4.80;99.90
52459;DHT22;38372;52.902;6.024;2022-12-01T06:00:37;4.80;99.90
52459;DHT22;38372;52.902;6.024;2022-12-01T06:03:03;4.80;99.90
52459;DHT22;38372;52.902;6.024;2022-12-01T06:05:30;4.80;99.90
52459;DHT22;38372;52.902;6.024;2022-12-01T06:07:55;4.90;99.90
52459;DHT22;38372;52.902;6.024;2022-12-01T06:10:22;4.90;99.90
52459;DHT22;38372;52.902;6.024;2022-12-01T06:12:49;4.90;99.90
52459;DHT22;38372;52.902;6.024;2022-12-01T06:15:15;4.90;99.90
52459;DHT22;38372;52.902;6.024;2022-12-01T06:17:41;4.90;99.90
52459;DHT22;38372;52.902;6.024;2022-12-01T06:20:07;4.90;99.90
52459;DHT22;38372;52.902;6.024;2022-12-01T06:22:33;5.00;99.90
52459;DHT22;38372;52.902;6.024;2022-12-01T06:24:59;4.90;99.90
52459;DHT22;38372;52.902;6.024;2022-12-01T06:27:25;5.00;99.90
52459;DHT22;38372;52.902;6.024;2022-12-01T06:29:50;5.00;99.90
52459;DHT22;38372;52.902;6.024;2022-12-01T06:32:17;4.90;99.90
52459;DHT22;38372;52.902;6.024;2022-12-01T06:34:43;5.00;99.90
52459;DHT22;38372;52.902;6.024;2022-12-01T06:37:10;4.90;99.90
52459;DHT22;38372;52.902;6.024;2022-12-01T06:39:36;5.00;99.90
52459;DHT22;38372;52.902;6.024;2022-12-01T06:42:02;4.90;99.90
52459;DHT22;38372;52.902;6.024;2022-12-01T06:44:28;4.90;99.90
52459;DHT22;38372;52.902;6.024;2022-12-01T06:46:55;4.90;99.90
52459;DHT22;38372;52.902;6.024;2022-12-01T06:49:21;4.80;99.90
52459;DHT22;38372;52.902;6.024;2022-12-01T06:51:48;4.90;99.90
52459;DHT22;38372;52.902;6.024;2022-12-01T06:54:14;4.80;99.90
52459;DHT22;38372;52.902;6.024;2022-12-01T06:56:42;4.70;99.90
52459;DHT22;38372;52.902;6.024;2022-12-01T06:59:08;4.60;99.90
52459;DHT22;38372;52.902;6.024;2022-12-01T07:01:34;4.50;99.90
52459;DHT22;38372;52.902;6.024;2022-12-01T07:04:00;4.40;99.90
52459;DHT22;38372;52.902;6.024;2022-12-01T07:06:28;4.30;99.90
52459;DHT22;38372;52.902;6.024;2022-12-01T07:08:54;4.20;99.90
52459;DHT22;38372;52.902;6.024;2022-12-01T07:11:20;4.10;99.90
52459;DHT22;38372;52.902;6.024;2022-12-01T07:13:46;4.00;99.90
52459;DHT22;38372;52.902;6.024;2022-12-01T07:16:14;4.00;99.90
52459;DHT22;38372;52.902;6.024;2022-12-01T07:18:40;3.90;99.90
52459;DHT22;38372;52.902;6.024;2022-12-01T07:21:11;3.80;99.90
52459;DHT22;38372;52.902;6.024;2022-12-01T07:23:37;3.80;99.90
52459;DHT22;38372;52.902;6.024;2022-12-01T07:26:06;3.70;99.90
52459;DHT22;38372;52.902;6.024;2022-12-01T07:28:32;3.70;99.90
52459;DHT22;38372;52.902;6.024;2022-12-01T07:31:19;3.60;99.90
52459;DHT22;38372;52.902;6.024;2022-12-01T07:33:45;3.60;99.90
52459;DHT22;38372;52.902;6.024;2022-12-01T07:36:12;3.60;99.90
52459;DHT22;38372;52.902;6.024;2022-12-01T07:38:39;3.50;99.90
52459;DHT22;38372;52.902;6.024;2022-12-01T07:41:10;3.50;99.90
52459;DHT22;38372;52.902;6.024;2022-12-01T07:43:37;3.50;99.90
52459;DHT22;38372;52.902;6.024;2022-12-01T07:48:34;3.50;99.90
52459;DHT22;38372;52.902;6.024;2022-12-01T07:51:00;3.40;99.90
52459;DHT22;38372;52.902;6.024;2022-12-01T07:53:25;3.40;99.90
52459;DHT22;38372;52.902;6.024;2022-12-01T07:55:51;3.40;99.90
52459;DHT22;38372;52.902;6.024;2022-12-01T07:58:17;3.30;99.90
52459;DHT22;38372;52.902;6.024;2022-12-01T08:00:43;3.30;99.90
52459;DHT22;38372;52.902;6.024;2022-12-01T08:03:08;3.20;99.90
52459;DHT22;38372;52.902;6.024;2022-12-01T08:05:34;3.20;99.90
52459;DHT22;38372;52.902;6.024;2022-12-01T08:08:00;3.20;99.90
52459;DHT22;38372;52.902;6.024;2022-12-01T08:10:26;3.20;99.90
52459;DHT22;38372;52.902;6.024;2022-12-01T08:12:52;3.20;99.90
52459;DHT22;38372;52.902;6.024;2022-12-01T08:15:18;3.30;99.90
52459;DHT22;38372;52.902;6.024;2022-12-01T08:17:44;3.40;99.90
52459;DHT22;38372;52.902;6.024;2022-12-01T08:20:10;3.40;99.90
52459;DHT22;38372;52.902;6.024;2022-12-01T08:22:36;3.50;99.90
52459;DHT22;38372;52.902;6.024;2022-12-01T08:25:03;3.50;99.90
52459;DHT22;38372;52.902;6.024;2022-12-01T08:27:28;3.60;99.90
52459;DHT22;38372;52.902;6.024;2022-12-01T08:29:55;3.60;99.90
52459;DHT22;38372;52.902;6.024;2022-12-01T08:32:21;3.60;99.90
52459;DHT22;38372;52.902;6.024;2022-12-01T08:34:47;3.60;99.90
52459;DHT22;38372;52.902;6.024;2022-12-01T08:37:13;3.70;99.90
52459;DHT22;38372;52.902;6.024;2022-12-01T08:39:39;3.70;99.90
52459;DHT22;38372;52.902;6.024;2022-12-01T08:42:04;3.80;99.90
52459;DHT22;38372;52.902;6.024;2022-12-01T08:44:30;4.00;99.90
52459;DHT22;38372;52.902;6.024;2022-12-01T08:46:56;4.20;99.90
52459;DHT22;38372;52.902;6.024;2022-12-01T08:49:22;4.30;99.90
52459;DHT22;38372;52.902;6.024;2022-12-01T08:51:48;4.70;99.90
52459;DHT22;38372;52.902;6.024;2022-12-01T08:54:14;5.00;99.90
52459;DHT22;38372;52.902;6.024;2022-12-01T08:56:42;5.40;99.90
52459;DHT22;38372;52.902;6.024;2022-12-01T08:59:08;5.90;99.90
52459;DHT22;38372;52.902;6.024;2022-12-01T09:01:35;6.40;99.90
52459;DHT22;38372;52.902;6.024;2022-12-01T09:04:17;6.90;99.90
52459;DHT22;38372;52.902;6.024;2022-12-01T09:06:44;7.60;99.90
52459;DHT22;38372;52.902;6.024;2022-12-01T09:09:13;8.30;99.90
52459;DHT22;38372;52.902;6.024;2022-12-01T09:11:40;8.90;99.90
52459;DHT22;38372;52.902;6.024;2022-12-01T09:14:08;9.40;99.90
52459;DHT22;38372;52.902;6.024;2022-12-01T09:16:33;9.70;99.90
52459;DHT22;38372;52.902;6.024;2022-12-01T09:18:59;10.00;99.90
52459;DHT22;38372;52.902;6.024;2022-12-01T09:21:27;10.40;99.90
52459;DHT22;38372;52.902;6.024;2022-12-01T09:23:55;10.70;99.90
52459;DHT22;38372;52.902;6.024;2022-12-01T09:26:22;10.80;99.90
52459;DHT22;38372;52.902;6.024;2022-12-01T09:28:52;11.20;99.90
52459;DHT22;38372;52.902;6.024;2022-12-01T09:31:19;11.50;99.90
52459;DHT22;38372;52.902;6.024;2022-12-01T09:34:02;11.90;99.90
52459;DHT22;38372;52.902;6.024;2022-12-01T09:36:30;12.40;99.90
52459;DHT22;38372;52.902;6.024;2022-12-01T09:38:57;12.60;99.90
52459;DHT22;38372;52.902;6.024;2022-12-01T09:41:32;12.80;99.90
52459;DHT22;38372;52.902;6.024;2022-12-01T09:46:51;13.50;99.90
52459;DHT22;38372;52.902;6.024;2022-12-01T09:49:25;13.80;99.90
52459;DHT22;38372;52.902;6.024;2022-12-01T09:51:53;14.20;99.90
52459;DHT22;38372;52.902;6.024;2022-12-01T09:54:20;14.60;99.90
52459;DHT22;38372;52.902;6.024;2022-12-01T09:56:51;14.80;99.90
52459;DHT22;38372;52.902;6.024;2022-12-01T09:59:26;15.00;99.90
52459;DHT22;38372;52.902;6.024;2022-12-01T10:02:00;15.20;99.90
52459;DHT22;38372;52.902;6.024;2022-12-01T10:04:36;15.40;99.90
52459;DHT22;38372;52.902;6.024;2022-12-01T10:07:28;15.80;99.90
52459;DHT22;38372;52.902;6.024;2022-12-01T10:09:57;16.00;99.90
52459;DHT22;38372;52.902;6.024;2022-12-01T10:12:28;16.20;99.90
52459;DHT22;38372;52.902;6.024;2022-12-01T10:18:03;16.30;99.90
52459;DHT22;38372;52.902;6.024;2022-12-01T10:20:51;16.40;99.90
52459;DHT22;38372;52.902;6.024;2022-12-01T10:26:28;16.60;99.90
52459;DHT22;38372;52.902;6.024;2022-12-01T10:29:08;16.80;99.90
52459;DHT22;38372;52.902;6.024;2022-12-01T10:34:27;17.10;99.90
52459;DHT22;38372;52.902;6.024;2022-12-01T10:36:54;17.00;99.90
52459;DHT22;38372;52.902;6.024;2022-12-01T10:39:36;17.00;99.90
52459;DHT22;38372;52.902;6.024;2022-12-01T10:42:20;17.30;99.90
52459;DHT22;38372;52.902;6.024;2022-12-01T10:44:47;17.50;99.90
52459;DHT22;38372;52.902;6.024;2022-12-01T10:47:23;17.80;99.90
52459;DHT22;38372;52.902;6.024;2022-12-01T10:49:50;17.80;99.90
52459;DHT22;38372;52.902;6.024;2022-12-01T10:52:33;18.00;99.90
52459;DHT22;38372;52.902;6.024;2022-12-01T10:55:00;17.90;99.90
52459;DHT22;38372;52.902;6.024;2022-12-01T10:57:28;17.70;99.90
52459;DHT22;38372;52.902;6.024;2022-12-01T11:00:03;17.20;99.90
52459;DHT22;38372;52.902;6.024;2022-12-01T11:02:30;16.50;99.90
52459;DHT22;38372;52.902;6.024;2022-12-01T11:05:05;15.80;99.90
52459;DHT22;38372;52.902;6.024;2022-12-01T11:07:42;15.50;99.90
52459;DHT22;38372;52.902;6.024;2022-12-01T11:10:25;15.20;99.90
52459;DHT22;38372;52.902;6.024;2022-12-01T11:13:03;15.10;99.90
52459;DHT22;38372;52.902;6.024;2022-12-01T11:15:48;15.10;99.90
52459;DHT22;38372;52.902;6.024;2022-12-01T11:18:34;15.00;99.90
52459;DHT22;38372;52.902;6.024;2022-12-01T11:21:08;14.50;99.90
52459;DHT22;38372;52.902;6.024;2022-12-01T11:23:37;14.30;99.90
52459;DHT22;38372;52.902;6.024;2022-12-01T11:26:23;14.10;99.90
52459;DHT22;38372;52.902;6.024;2022-12-01T11:28:58;13.60;99.90
52459;DHT22;38372;52.902;6.024;2022-12-01T11:31:57;13.20;99.90
52459;DHT22;38372;52.902;6.024;2022-12-01T11:34:33;12.90;99.90
52459;DHT22;38372;52.902;6.024;2022-12-01T11:37:07;12.60;99.90
52459;DHT22;38372;52.902;6.024;2022-12-01T11:39:36;12.30;99.90
52459;DHT22;38372;52.902;6.024;2022-12-01T11:42:15;11.90;99.90
52459;DHT22;38372;52.902;6.024;2022-12-01T11:50:43;10.90;99.90
52459;DHT22;38372;52.902;6.024;2022-12-01T11:53:36;11.10;99.90
52459;DHT22;38372;52.902;6.024;2022-12-01T11:56:13;11.10;99.90
52459;DHT22;38372;52.902;6.024;2022-12-01T11:58:40;10.90;99.90
52459;DHT22;38372;52.902;6.024;2022-12-01T12:01:25;10.60;99.90
52459;DHT22;38372;52.902;6.024;2022-12-01T12:11:52;10.10;99.90
52459;DHT22;38372;52.902;6.024;2022-12-01T12:14:35;9.80;99.90
52459;DHT22;38372;52.902;6.024;2022-12-01T12:17:21;9.60;99.90
52459;DHT22;38372;52.902;6.024;2022-12-01T12:20:22;9.50;99.90
52459;DHT22;38372;52.902;6.024;2022-12-01T12:28:28;8.90;99.90
52459;DHT22;38372;52.902;6.024;2022-12-01T12:31:15;8.70;99.90
52459;DHT22;38372;52.902;6.024;2022-12-01T12:46:59;8.30;99.90
52459;DHT22;38372;52.902;6.024;2022-12-01T12:50:02;8.20;99.90
52459;DHT22;38372;52.902;6.024;2022-12-01T12:52:32;8.10;99.90
52459;DHT22;38372;52.902;6.024;2022-12-01T12:55:04;8.00;99.90
52459;DHT22;38372;52.902;6.024;2022-12-01T12:57:39;7.80;99.90
52459;DHT22;38372;52.902;6.024;2022-12-01T13:00:12;7.80;99.90
52459;DHT22;38372;52.902;6.024;2022-12-01T13:05:43;7.60;99.90
52459;DHT22;38372;52.902;6.024;2022-12-01T13:08:17;7.60;99.90
52459;DHT22;38372;52.902;6.024;2022-12-01T13:14:08;7.50;99.90
52459;DHT22;38372;52.902;6.024;2022-12-01T13:16:44;7.50;99.90
52459;DHT22;38372;52.902;6.024;2022-12-01T13:21:43;7.60;99.90
52459;DHT22;38372;52.902;6.024;2022-12-01T13:24:12;7.60;99.90
52459;DHT22;38372;52.902;6.024;2022-12-01T13:26:40;7.50;99.90
52459;DHT22;38372;52.902;6.024;2022-12-01T13:29:13;7.50;99.90
52459;DHT22;38372;52.902;6.024;2022-12-01T13:31:53;7.50;99.90
52459;DHT22;38372;52.902;6.024;2022-12-01T13:36:56;7.50;99.90
52459;DHT22;38372;52.902;6.024;2022-12-01T13:42:05;7.30;99.90
52459;DHT22;38372;52.902;6.024;2022-12-01T13:44:42;7.20;99.90
52459;DHT22;38372;52.902;6.024;2022-12-01T14:00:32;7.00;99.90
52459;DHT22;38372;52.902;6.024;2022-12-01T14:08:21;6.90;99.90
52459;DHT22;38372;52.902;6.024;2022-12-01T14:13:21;6.80;99.90
52459;DHT22;38372;52.902;6.024;2022-12-01T14:15:57;6.80;99.90
52459;DHT22;38372;52.902;6.024;2022-12-01T14:18:35;6.80;99.90
52459;DHT22;38372;52.902;6.024;2022-12-01T14:21:05;6.70;99.90
52459;DHT22;38372;52.902;6.024;2022-12-01T14:23:34;6.80;99.90
52459;DHT22;38372;52.902;6.024;2022-12-01T14:31:20;6.80;99.90
52459;DHT22;38372;52.902;6.024;2022-12-01T14:44:11;6.80;99.90
52459;DHT22;38372;52.902;6.024;2022-12-01T14:46:51;6.80;99.90
52459;DHT22;38372;52.902;6.024;2022-12-01T14:49:28;6.80;99.90
52459;DHT22;38372;52.902;6.024;2022-12-01T14:52:03;6.70;99.90
52459;DHT22;38372;52.902;6.024;2022-12-01T14:54:44;6.70;99.90
52459;DHT22;38372;52.902;6.024;2022-12-01T14:57:12;6.70;99.90
52459;DHT22;38372;52.902;6.024;2022-12-01T14:59:40;6.70;99.90
52459;DHT22;38372;52.902;6.024;2022-12-01T15:02:08;6.60;99.90
52459;DHT22;38372;52.902;6.024;2022-12-01T15:05:08;6.60;99.90
52459;DHT22;38372;52.902;6.024;2022-12-01T15:07:40;6.50;99.90
52459;DHT22;38372;52.902;6.024;2022-12-01T15:10:30;6.40;99.90
52459;DHT22;38372;52.902;6.024;2022-12-01T15:13:28;6.30;99.90
52459;DHT22;38372;52.902;6.024;2022-12-01T15:16:13;6.30;99.90
52459;DHT22;38372;52.902;6.024;2022-12-01T15:18:39;6.20;99.90
52459;DHT22;38372;52.902;6.024;2022-12-01T15:23:54;6.10;99.90
52459;DHT22;38372;52.902;6.024;2022-12-01T15:26:22;6.00;99.90
52459;DHT22;38372;52.902;6.024;2022-12-01T15:28:48;5.90;99.90
52459;DHT22;38372;52.902;6.024;2022-12-01T15:31:14;5.80;99.90
52459;DHT22;38372;52.902;6.024;2022-12-01T15:33:46;5.80;99.90
52459;DHT22;38372;52.902;6.024;2022-12-01T15:36:13;5.70;99.90
52459;DHT22;38372;52.902;6.024;2022-12-01T15:38:40;5.60;99.90
52459;DHT22;38372;52.902;6.024;2022-12-01T15:41:17;5.60;99.90
52459;DHT22;38372;52.902;6.024;2022-12-01T15:43:43;5.60;99.90
52459;DHT22;38372;52.902;6.024;2022-12-01T15:46:18;5.60;99.90
52459;DHT22;38372;52.902;6.024;2022-12-01T15:48:43;5.60;99.90
52459;DHT22;38372;52.902;6.024;2022-12-01T15:51:23;5.60;99.90
52459;DHT22;38372;52.902;6.024;2022-12-01T15:53:56;5.60;99.90
52459;DHT22;38372;52.902;6.024;2022-12-01T15:56:28;5.50;99.90
52459;DHT22;38372;52.902;6.024;2022-12-01T15:59:01;5.50;99.90
52459;DHT22;38372;52.902;6.024;2022-12-01T16:01:31;5.40;99.90
52459;DHT22;38372;52.902;6.024;2022-12-01T16:04:03;5.40;99.90
52459;DHT22;38372;52.902;6.024;2022-12-01T16:06:35;5.40;99.90
52459;DHT22;38372;52.902;6.024;2022-12-01T16:09:22;5.30;99.90
52459;DHT22;38372;52.902;6.024;2022-12-01T16:15:01;5.30;99.90
52459;DHT22;38372;52.902;6.024;2022-12-01T16:17:51;5.30;99.90
52459;DHT22;38372;52.902;6.024;2022-12-01T16:20:40;5.40;99.90
52459;DHT22;38372;52.902;6.024;2022-12-01T16:23:20;5.40;99.90
52459;DHT22;38372;52.902;6.024;2022-12-01T16:25:48;5.40;99.90
52459;DHT22;38372;52.902;6.024;2022-12-01T16:28:26;5.40;99.90
52459;DHT22;38372;52.902;6.024;2022-12-01T16:30:55;5.40;99.90
52459;DHT22;38372;52.902;6.024;2022-12-01T16:33:24;5.50;99.90
52459;DHT22;38372;52.902;6.024;2022-12-01T16:35:50;5.50;99.90
52459;DHT22;38372;52.902;6.024;2022-12-01T16:38:24;5.50;99.90
52459;DHT22;38372;52.902;6.024;2022-12-01T16:40:52;5.50;99.90
52459;DHT22;38372;52.902;6.024;2022-12-01T16:43:23;5.50;99.90
52459;DHT22;38372;52.902;6.024;2022-12-01T16:46:01;5.50;99.90
52459;DHT22;38372;52.902;6.024;2022-12-01T16:48:28;5.50;99.90
52459;DHT22;38372;52.902;6.024;2022-12-01T16:50:54;5.50;99.90
52459;DHT22;38372;52.902;6.024;2022-12-01T16:53:21;5.50;99.90
52459;DHT22;38372;52.902;6.024;2022-12-01T16:55:51;5.60;99.90
52459;DHT22;38372;52.902;6.024;2022-12-01T16:58:17;5.50;99.90
52459;DHT22;38372;52.902;6.024;2022-12-01T17:00:43;5.50;99.90
52459;DHT22;38372;52.902;6.024;2022-12-01T17:03:15;5.50;99.90
52459;DHT22;38372;52.902;6.024;2022-12-01T17:05:41;5.50;99.90
52459;DHT22;38372;52.902;6.024;2022-12-01T17:08:07;5.50;99.90
52459;DHT22;38372;52.902;6.024;2022-12-01T17:10:34;5.50;99.90
52459;DHT22;38372;52.902;6.024;2022-12-01T17:13:00;5.50;99.90
52459;DHT22;38372;52.902;6.024;2022-12-01T17:15:26;5.50;99.90
52459;DHT22;38372;52.902;6.024;2022-12-01T17:17:52;5.50;99.90
52459;DHT22;38372;52.902;6.024;2022-12-01T17:20:18;5.50;99.90
52459;DHT22;38372;52.902;6.024;2022-12-01T17:22:43;5.40;99.90
52459;DHT22;38372;52.902;6.024;2022-12-01T17:25:09;5.40;99.90
52459;DHT22;38372;52.902;6.024;2022-12-01T17:27:36;5.40;99.90
52459;DHT22;38372;52.902;6.024;2022-12-01T17:30:02;5.40;99.90
52459;DHT22;38372;52.902;6.024;2022-12-01T17:32:28;5.40;99.90
52459;DHT22;38372;52.902;6.024;2022-12-01T17:34:54;5.40;99.90
52459;DHT22;38372;52.902;6.024;2022-12-01T17:37:19;5.40;99.90
52459;DHT22;38372;52.902;6.024;2022-12-01T17:39:45;5.40;99.90
52459;DHT22;38372;52.902;6.024;2022-12-01T17:42:11;5.40;99.90
52459;DHT22;38372;52.902;6.024;2022-12-01T17:44:36;5.40;99.90
52459;DHT22;38372;52.902;6.024;2022-12-01T17:47:03;5.40;99.90
52459;DHT22;38372;52.902;6.024;2022-12-01T17:49:29;5.40;99.90
52459;DHT22;38372;52.902;6.024;2022-12-01T17:51:54;5.40;99.90
52459;DHT22;38372;52.902;6.024;2022-12-01T17:54:20;5.40;99.90
52459;DHT22;38372;52.902;6.024;2022-12-01T17:56:46;5.40;99.90
52459;DHT22;38372;52.902;6.024;2022-12-01T17:59:12;5.40;99.90
52459;DHT22;38372;52.902;6.024;2022-12-01T18:01:38;5.40;99.90
52459;DHT22;38372;52.902;6.024;2022-12-01T18:04:05;5.40;99.90
52459;DHT22;38372;52.902;6.024;2022-12-01T18:06:31;5.30;99.90
52459;DHT22;38372;52.902;6.024;2022-12-01T18:08:58;5.40;99.90
52459;DHT22;38372;52.902;6.024;2022-12-01T18:11:25;5.40;99.90
52459;DHT22;38372;52.902;6.024;2022-12-01T18:13:51;5.40;99.90
52459;DHT22;38372;52.902;6.024;2022-12-01T18:16:25;5.40;99.90